createdAt,value
2023-04-28T00:00:09.804Z,9.18
2023-04-28T00:02:38.051Z,10.93
2023-04-28T00:05:08.247Z,10.05
2023-04-28T00:07:36.374Z,10.00
2023-04-28T00:10:08.063Z,11.73
2023-04-28T00:12:36.180Z,8.70
2023-04-28T00:15:04.597Z,9.65
2023-04-28T00:17:32.711Z,9.35
2023-04-28T00:20:03.254Z,8.63
2023-04-28T00:22:32.684Z,8.48
2023-04-28T00:25:00.865Z,10.20
2023-04-28T00:27:28.899Z,9.02
2023-04-28T00:29:57.280Z,9.13
2023-04-28T00:32:25.409Z,8.85
2023-04-28T00:34:53.458Z,8.60
2023-04-28T00:37:21.660Z,8.57
2023-04-28T00:39:56.303Z,11.00
2023-04-28T00:42:25.406Z,8.95
2023-04-28T00:44:53.451Z,8.10
2023-04-28T00:47:21.551Z,7.50
2023-04-28T00:49:52.286Z,8.75
2023-04-28T00:52:20.327Z,9.05
2023-04-28T00:54:50.452Z,8.57
2023-04-28T00:57:18.519Z,7.50
2023-04-28T00:59:46.803Z,11.35
2023-04-28T01:02:18.248Z,9.50
2023-04-28T01:04:46.817Z,8.00
2023-04-28T01:07:14.950Z,9.63
2023-04-28T01:09:44.077Z,8.40
2023-04-28T01:12:13.464Z,8.27
2023-04-28T01:14:41.630Z,10.05
2023-04-28T01:17:12.981Z,9.77
2023-04-28T01:19:41.058Z,7.35
2023-04-28T01:22:10.680Z,8.50
2023-04-28T01:24:40.198Z,8.43
2023-04-28T01:27:08.281Z,9.90
2023-04-28T01:29:36.436Z,10.88
2023-04-28T01:32:04.769Z,10.52
2023-04-28T01:34:32.867Z,8.48
2023-04-28T01:37:01.300Z,8.63
2023-04-28T01:39:29.325Z,9.02
2023-04-28T01:41:58.869Z,9.02
2023-04-28T01:44:27.047Z,9.45
2023-04-28T01:46:55.153Z,12.20
2023-04-28T01:49:24.094Z,8.60
2023-04-28T01:51:52.192Z,10.98
2023-04-28T01:54:20.198Z,9.00
2023-04-28T01:56:48.377Z,12.23
2023-04-28T01:59:18.870Z,9.77
2023-04-28T02:01:46.984Z,10.57
2023-04-28T02:04:15.593Z,8.30
2023-04-28T02:06:44.054Z,10.80
2023-04-28T02:09:14.902Z,8.07
2023-04-28T02:11:42.913Z,10.70
2023-04-28T02:14:10.956Z,9.50
2023-04-28T02:16:40.325Z,8.25
2023-04-28T02:19:08.425Z,11.65
2023-04-28T02:21:36.420Z,9.90
2023-04-28T02:24:04.836Z,8.85
2023-04-28T02:26:36.361Z,9.18
2023-04-28T02:29:04.786Z,9.60
2023-04-28T02:31:33.078Z,10.73
2023-04-28T02:34:04.871Z,8.52
2023-04-28T02:36:33.352Z,8.52
2023-04-28T02:39:01.427Z,10.05
2023-04-28T02:41:31.220Z,9.90
2023-04-28T02:43:59.228Z,8.95
2023-04-28T02:46:29.609Z,9.48
2023-04-28T02:48:57.676Z,8.82
2023-04-28T02:51:27.031Z,9.15
2023-04-28T02:53:55.115Z,9.68
2023-04-28T02:56:23.077Z,10.82
2023-04-28T02:58:51.135Z,9.15
2023-04-28T03:01:19.293Z,9.60
2023-04-28T03:03:47.564Z,9.85
2023-04-28T03:06:15.668Z,10.05
2023-04-28T03:08:45.102Z,9.70
2023-04-28T03:11:13.277Z,10.23
2023-04-28T03:13:41.546Z,9.98
2023-04-28T03:16:09.641Z,9.90
2023-04-28T03:18:37.768Z,9.70
2023-04-28T03:21:06.183Z,8.80
2023-04-28T03:23:34.188Z,9.63
2023-04-28T03:26:03.600Z,8.52
2023-04-28T03:28:31.978Z,9.23
2023-04-28T03:31:00.045Z,11.43
2023-04-28T03:33:28.065Z,8.45
2023-04-28T03:35:56.385Z,8.23
2023-04-28T03:38:24.428Z,9.40
2023-04-28T03:40:52.474Z,9.50
2023-04-28T03:43:22.133Z,11.27
2023-04-28T03:45:50.451Z,11.68
2023-04-28T03:48:18.464Z,9.07
2023-04-28T03:50:46.577Z,10.00
2023-04-28T03:53:14.605Z,8.82
2023-04-28T03:55:42.596Z,9.23
2023-04-28T03:58:10.831Z,10.63
2023-04-28T04:00:40.197Z,10.50
2023-04-28T04:03:08.317Z,10.18
2023-04-28T04:05:36.651Z,10.82
2023-04-28T04:08:07.743Z,9.80
2023-04-28T04:10:35.740Z,10.82
2023-04-28T04:13:03.788Z,9.65
2023-04-28T04:15:31.915Z,10.63
2023-04-28T04:18:01.941Z,11.27
2023-04-28T04:20:30.106Z,10.10
2023-04-28T04:23:01.567Z,10.90
2023-04-28T04:25:29.639Z,9.88
2023-04-28T04:27:57.650Z,11.68
2023-04-28T04:30:25.775Z,12.20
2023-04-28T04:32:53.799Z,10.23
2023-04-28T04:35:23.362Z,10.98
2023-04-28T04:37:51.627Z,11.23
2023-04-28T04:40:19.655Z,9.30
2023-04-28T04:42:50.429Z,13.02
2023-04-28T04:45:18.846Z,15.05
2023-04-28T04:47:46.951Z,9.77
2023-04-28T04:50:15.043Z,9.98
2023-04-28T04:52:44.463Z,11.02
2023-04-28T04:55:12.505Z,10.85
2023-04-28T04:57:40.492Z,12.02
2023-04-28T05:00:09.783Z,10.68
2023-04-28T05:02:38.042Z,12.13
2023-04-28T05:05:19.918Z,11.32
2023-04-28T05:07:50.680Z,10.77
2023-04-28T05:10:21.156Z,10.60
2023-04-28T05:12:49.418Z,11.23
2023-04-28T05:15:17.622Z,10.13
2023-04-28T05:17:48.489Z,11.35
2023-04-28T05:20:16.566Z,13.68
2023-04-28T05:22:44.670Z,10.90
2023-04-28T05:25:14.112Z,11.25
2023-04-28T05:27:42.261Z,13.10
2023-04-28T05:30:11.576Z,14.18
2023-04-28T05:32:40.065Z,14.30
2023-04-28T05:35:08.652Z,13.93
2023-04-28T05:37:37.752Z,15.43
2023-04-28T05:40:07.964Z,16.92
2023-04-28T05:42:37.364Z,17.00
2023-04-28T05:45:06.159Z,15.65
2023-04-28T05:47:34.257Z,15.45
2023-04-28T05:50:02.302Z,15.48
2023-04-28T05:52:32.004Z,17.13
2023-04-28T05:55:00.016Z,17.10
2023-04-28T05:57:29.301Z,15.85
2023-04-28T05:59:58.867Z,19.35
2023-04-28T06:02:28.066Z,18.75
2023-04-28T06:04:59.027Z,18.43
2023-04-28T06:07:27.390Z,18.20
2023-04-28T06:09:55.420Z,20.58
2023-04-28T06:12:23.408Z,18.90
2023-04-28T06:14:53.273Z,18.73
2023-04-28T06:17:22.993Z,19.08
2023-04-28T06:19:54.271Z,22.50
2023-04-28T06:22:22.281Z,19.20
2023-04-28T06:24:50.428Z,22.13
2023-04-28T06:27:18.771Z,22.17
2023-04-28T06:29:46.858Z,19.63
2023-04-28T06:32:14.954Z,21.45
2023-04-28T06:34:44.345Z,21.70
2023-04-28T06:37:12.423Z,22.85
2023-04-28T06:39:40.515Z,23.85
2023-04-28T06:42:08.611Z,23.00
2023-04-28T06:44:36.888Z,21.48
2023-04-28T06:47:05.161Z,23.75
2023-04-28T06:49:33.286Z,25.02
2023-04-28T06:52:05.352Z,23.55
2023-04-28T06:54:33.429Z,20.52
2023-04-28T06:57:02.249Z,25.10
2023-04-28T06:59:30.310Z,23.55
2023-04-28T07:01:58.678Z,23.27
2023-04-28T07:04:27.354Z,26.05
2023-04-28T07:06:58.121Z,23.98
2023-04-28T07:09:27.997Z,25.95
2023-04-28T07:11:58.303Z,23.70
2023-04-28T07:14:26.900Z,28.23
2023-04-28T07:16:55.018Z,23.05
2023-04-28T07:19:23.149Z,24.63
2023-04-28T07:21:54.035Z,26.77
2023-04-28T07:24:23.455Z,23.63
2023-04-28T07:26:53.290Z,24.73
2023-04-28T07:29:21.376Z,23.65
2023-04-28T07:31:49.406Z,25.13
2023-04-28T07:34:18.109Z,22.50
2023-04-28T07:36:47.185Z,20.58
2023-04-28T07:39:16.071Z,23.40
2023-04-28T07:41:44.129Z,21.48
2023-04-28T07:44:13.597Z,24.30
2023-04-28T07:46:41.743Z,20.58
2023-04-28T07:49:12.782Z,20.10
2023-04-28T07:51:40.802Z,24.33
2023-04-28T07:54:09.056Z,22.58
2023-04-28T07:56:37.120Z,20.38
2023-04-28T07:59:05.184Z,22.55
2023-04-28T08:01:34.612Z,23.27
2023-04-28T08:04:03.022Z,21.85
2023-04-28T08:06:31.335Z,20.65
2023-04-28T08:08:59.350Z,22.80
2023-04-28T08:11:27.580Z,22.13
2023-04-28T08:14:01.192Z,21.60
2023-04-28T08:16:29.529Z,22.90
2023-04-28T08:18:59.763Z,19.17
2023-04-28T08:21:28.138Z,21.83
2023-04-28T08:23:56.132Z,24.40
2023-04-28T08:26:27.069Z,20.95
2023-04-28T08:28:55.070Z,21.63
2023-04-28T08:31:23.940Z,23.52
2023-04-28T08:33:51.986Z,21.45
2023-04-28T08:36:21.394Z,25.23
2023-04-28T08:38:49.572Z,21.98
2023-04-28T08:41:19.529Z,24.70
2023-04-28T08:43:47.664Z,26.17
2023-04-28T08:46:16.164Z,25.13
2023-04-28T08:48:46.618Z,21.60
2023-04-28T08:51:17.359Z,21.60
2023-04-28T08:56:26.314Z,23.00
2023-04-28T08:58:56.173Z,22.83
2023-04-28T09:01:24.393Z,21.38
2023-04-28T09:03:55.411Z,25.30
2023-04-28T09:06:26.455Z,22.77
2023-04-28T09:08:56.062Z,20.27
2023-04-28T09:11:25.102Z,20.33
2023-04-28T09:13:53.196Z,19.20
2023-04-28T09:16:21.243Z,19.58
2023-04-28T09:18:58.202Z,22.88
2023-04-28T09:21:26.943Z,18.38
2023-04-28T09:23:56.384Z,20.73
2023-04-28T09:26:26.751Z,21.77
2023-04-28T09:29:13.029Z,19.25
2023-04-28T09:31:42.868Z,20.77
2023-04-28T09:34:15.144Z,17.52
2023-04-28T09:36:45.790Z,22.00
2023-04-28T09:39:15.261Z,19.05
2023-04-28T09:41:45.488Z,19.15
2023-04-28T09:44:15.537Z,20.23
2023-04-28T09:46:44.739Z,19.90
2023-04-28T09:49:13.324Z,17.92
2023-04-28T09:51:41.574Z,21.52
2023-04-28T09:54:09.650Z,17.73
2023-04-28T09:56:42.273Z,17.27
2023-04-28T09:59:10.802Z,24.27
2023-04-28T10:01:41.671Z,18.88
2023-04-28T10:04:12.164Z,19.42
2023-04-28T10:09:12.340Z,17.77
2023-04-28T10:11:45.002Z,17.92
2023-04-28T10:14:13.820Z,17.60
2023-04-28T10:16:41.996Z,19.38
2023-04-28T10:19:11.086Z,19.40
2023-04-28T10:21:49.437Z,17.90
2023-04-28T10:24:23.614Z,22.05
2023-04-28T10:27:11.332Z,23.33
2023-04-28T10:29:39.589Z,19.40
2023-04-28T10:32:21.360Z,21.25
2023-04-28T10:34:49.809Z,18.35
2023-04-28T10:37:19.053Z,20.10
2023-04-28T10:40:35.780Z,20.05
2023-04-28T10:43:06.732Z,24.23
2023-04-28T10:46:04.076Z,21.73
2023-04-28T10:48:55.410Z,22.60
2023-04-28T10:51:30.310Z,19.85
2023-04-28T10:54:21.344Z,21.98
2023-04-28T10:57:21.380Z,22.00
2023-04-28T11:00:13.883Z,22.65
2023-04-28T11:02:44.804Z,25.10
2023-04-28T11:05:19.106Z,24.90
2023-04-28T11:08:30.952Z,23.17
2023-04-28T11:11:17.958Z,27.15
2023-04-28T11:13:48.002Z,32.67
2023-04-28T11:16:19.347Z,21.90
2023-04-28T11:19:05.604Z,217.93
2023-04-28T11:21:34.602Z,32.58
2023-04-28T11:24:09.575Z,16.98
2023-04-28T11:26:39.397Z,17.38
2023-04-28T11:29:07.700Z,16.83
2023-04-28T11:31:37.334Z,53.05
2023-04-28T11:34:06.737Z,19.75
2023-04-28T11:36:37.061Z,16.17
2023-04-28T11:39:07.810Z,15.70
2023-04-28T11:41:36.566Z,14.95
2023-04-28T11:44:11.824Z,14.55
2023-04-28T11:46:51.042Z,13.35
2023-04-28T11:49:20.355Z,14.23
2023-04-28T11:51:50.105Z,13.98
2023-04-28T11:54:22.815Z,15.25
2023-04-28T11:56:51.762Z,16.35
2023-04-28T11:59:22.129Z,18.33
2023-04-28T12:01:52.953Z,16.23
2023-04-28T12:04:32.989Z,17.30
2023-04-28T12:07:06.307Z,19.85
2023-04-28T12:09:35.669Z,21.23
2023-04-28T12:12:08.186Z,19.13
2023-04-28T12:14:57.733Z,21.50
2023-04-28T12:17:31.453Z,19.63
2023-04-28T12:20:01.425Z,18.95
2023-04-28T12:22:29.720Z,18.17
2023-04-28T12:25:07.938Z,19.05
2023-04-28T12:27:39.175Z,19.67
2023-04-28T12:30:26.040Z,19.33
2023-04-28T12:32:56.137Z,18.60
2023-04-28T12:35:24.792Z,17.45
2023-04-28T12:37:53.071Z,15.80
2023-04-28T12:40:21.311Z,15.23
2023-04-28T12:42:49.978Z,15.07
2023-04-28T12:45:18.381Z,16.67
2023-04-28T12:47:47.392Z,16.08
2023-04-28T12:50:17.015Z,14.77
2023-04-28T12:52:45.325Z,14.90
2023-04-28T12:55:13.341Z,15.65
2023-04-28T12:57:41.632Z,15.02
2023-04-28T13:00:10.569Z,15.98
2023-04-28T13:02:39.282Z,14.38
2023-04-28T13:05:09.301Z,14.65
2023-04-28T13:07:38.784Z,14.73
2023-04-28T13:10:08.082Z,14.63
2023-04-28T13:12:36.156Z,14.93
2023-04-28T13:15:04.742Z,13.75
2023-04-28T13:17:35.894Z,13.68
2023-04-28T13:20:05.618Z,13.23
2023-04-28T13:22:33.749Z,11.85
2023-04-28T13:25:03.158Z,10.13
2023-04-28T13:27:31.437Z,10.30
2023-04-28T13:30:00.061Z,12.57
2023-04-28T13:32:28.237Z,11.82
2023-04-28T13:34:58.639Z,11.02
2023-04-28T13:37:26.662Z,11.73
2023-04-28T13:39:54.666Z,10.32
2023-04-28T13:42:24.101Z,11.82
2023-04-28T13:44:52.147Z,9.88
2023-04-28T13:47:20.249Z,10.10
2023-04-28T13:49:51.434Z,10.55
2023-04-28T13:52:19.416Z,10.68
2023-04-28T13:54:47.694Z,10.65
2023-04-28T13:57:15.975Z,11.50
2023-04-28T13:59:45.842Z,11.32
2023-04-28T14:02:13.944Z,13.63
2023-04-28T14:04:48.428Z,10.18
2023-04-28T14:07:16.942Z,10.70
2023-04-28T14:09:45.210Z,10.23
2023-04-28T14:12:13.891Z,10.48
2023-04-28T14:14:42.740Z,10.73
2023-04-28T14:17:12.574Z,9.38
2023-04-28T14:19:40.665Z,9.63
2023-04-28T14:22:08.723Z,9.93
2023-04-28T14:24:37.552Z,10.30
2023-04-28T14:27:05.744Z,10.68
2023-04-28T14:29:33.790Z,9.73
2023-04-28T14:32:02.173Z,11.00
2023-04-28T14:34:31.757Z,8.82
2023-04-28T14:36:59.914Z,7.80
2023-04-28T14:39:27.959Z,7.63
2023-04-28T14:41:55.980Z,7.07
2023-04-28T14:44:24.030Z,6.13
2023-04-28T14:46:52.021Z,6.45
2023-04-28T14:49:23.559Z,6.70
2023-04-28T14:51:53.612Z,6.97
2023-04-28T14:54:22.317Z,6.03
2023-04-28T14:56:50.660Z,6.20
2023-04-28T14:59:19.532Z,16.48
2023-04-28T15:01:48.522Z,9.35
2023-04-28T15:04:16.952Z,6.75
2023-04-28T15:06:48.007Z,6.22
2023-04-28T15:09:17.404Z,6.72
2023-04-28T15:11:45.632Z,6.85
2023-04-28T15:14:14.006Z,8.02
2023-04-28T15:16:42.069Z,9.80
2023-04-28T15:19:10.288Z,7.05
2023-04-28T15:21:38.672Z,8.15
2023-04-28T15:24:07.090Z,8.43
2023-04-28T15:26:36.490Z,7.43
2023-04-28T15:29:04.960Z,7.32
2023-04-28T15:31:33.014Z,9.20
2023-04-28T15:34:01.220Z,7.53
2023-04-28T15:36:29.289Z,7.50
2023-04-28T15:38:57.359Z,17.25
2023-04-28T15:41:25.404Z,8.07
2023-04-28T15:43:57.784Z,9.23
2023-04-28T15:46:26.011Z,7.63
2023-04-28T15:48:55.066Z,10.00
2023-04-28T15:51:23.461Z,9.38
2023-04-28T15:53:51.692Z,10.13
2023-04-28T15:56:20.018Z,9.20
2023-04-28T15:58:48.760Z,8.90
2023-04-28T16:01:22.146Z,9.27
2023-04-28T16:03:50.501Z,10.13
2023-04-28T16:06:21.581Z,10.73
2023-04-28T16:08:49.630Z,11.57
2023-04-28T16:11:20.424Z,11.65
2023-04-28T16:13:48.525Z,10.80
2023-04-28T16:16:16.586Z,11.27
2023-04-28T16:18:46.092Z,11.98
2023-04-28T16:21:17.314Z,11.52
2023-04-28T16:23:45.533Z,11.75
2023-04-28T16:26:13.537Z,12.98
2023-04-28T16:28:41.504Z,12.27
2023-04-28T16:31:11.691Z,14.52
2023-04-28T16:33:39.714Z,14.15
2023-04-28T16:36:09.602Z,16.35
2023-04-28T16:38:37.581Z,15.98
2023-04-28T16:41:06.026Z,20.20
2023-04-28T16:43:36.192Z,16.63
2023-04-28T16:46:04.465Z,13.85
2023-04-28T16:48:32.485Z,13.95
2023-04-28T16:51:00.486Z,16.05
2023-04-28T16:53:29.940Z,13.73
2023-04-28T16:55:58.023Z,16.20
2023-04-28T16:58:26.188Z,14.07
2023-04-28T17:00:54.347Z,14.90
2023-04-28T17:03:22.523Z,14.00
2023-04-28T17:05:50.630Z,14.73
2023-04-28T17:08:18.764Z,14.63
2023-04-28T17:10:48.296Z,16.42
2023-04-28T17:13:16.281Z,16.00
2023-04-28T17:15:44.424Z,13.95
2023-04-28T17:18:15.595Z,14.18
2023-04-28T17:20:43.960Z,14.73
2023-04-28T17:23:12.346Z,15.75
2023-04-28T17:25:40.370Z,14.23
2023-04-28T17:28:12.271Z,16.67
2023-04-28T17:30:43.776Z,15.70
2023-04-28T17:33:13.847Z,11.70
2023-04-28T17:35:41.981Z,13.38
2023-04-28T17:38:10.062Z,13.23
2023-04-28T17:40:38.261Z,13.35
2023-04-28T17:43:06.349Z,13.15
2023-04-28T17:45:35.776Z,10.75
2023-04-28T17:48:04.245Z,11.48
2023-04-28T17:50:32.337Z,11.07
2023-04-28T17:53:00.426Z,8.98
2023-04-28T17:55:28.751Z,8.95
2023-04-28T17:57:56.795Z,9.07
2023-04-28T18:00:25.150Z,8.20
2023-04-28T18:02:55.227Z,8.18
2023-04-28T18:05:24.325Z,8.75
2023-04-28T18:07:52.492Z,6.88
2023-04-28T18:10:20.554Z,6.05
2023-04-28T18:12:48.576Z,7.03
2023-04-28T18:15:16.818Z,7.05
2023-04-28T18:17:44.843Z,4.60
2023-04-28T18:20:14.741Z,4.75
2023-04-28T18:22:43.008Z,5.60
2023-04-28T18:25:11.437Z,4.70
2023-04-28T18:27:39.585Z,4.05
2023-04-28T18:30:09.166Z,5.45
2023-04-28T18:32:37.297Z,6.00
2023-04-28T18:35:05.756Z,5.43
2023-04-28T18:37:37.061Z,5.20
2023-04-28T18:40:05.348Z,5.65
2023-04-28T18:42:34.118Z,5.82
2023-04-28T18:45:02.591Z,6.20
2023-04-28T18:47:30.968Z,5.95
2023-04-28T18:49:59.961Z,5.50
2023-04-28T18:52:28.023Z,5.47
2023-04-28T18:54:57.448Z,6.32
2023-04-28T18:57:25.530Z,5.80
2023-04-28T18:59:53.722Z,5.85
2023-04-28T19:02:23.116Z,5.95
2023-04-28T19:04:51.432Z,6.18
2023-04-28T19:07:19.524Z,7.05
2023-04-28T19:09:47.671Z,6.22
2023-04-28T19:12:17.786Z,4.97
2023-04-28T19:14:46.061Z,5.75
2023-04-28T19:17:14.144Z,5.53
2023-04-28T19:19:42.937Z,6.35
2023-04-28T19:22:32.580Z,6.68
2023-04-28T19:25:01.304Z,5.47
2023-04-28T19:27:33.461Z,6.53
2023-04-28T19:30:01.998Z,6.72
2023-04-28T19:32:30.819Z,7.15
2023-04-28T19:34:59.005Z,7.43
2023-04-28T19:37:27.379Z,8.43
2023-04-28T19:39:58.449Z,9.45
2023-04-28T19:42:26.520Z,10.88
2023-04-28T19:44:59.837Z,11.02
2023-04-28T19:47:29.649Z,10.77
2023-04-28T19:49:57.748Z,11.15
2023-04-28T19:52:25.871Z,13.70
2023-04-28T19:54:54.665Z,14.40
2023-04-28T19:57:23.554Z,16.38
2023-04-28T19:59:51.849Z,19.52
2023-04-28T20:02:21.680Z,18.35
2023-04-28T20:04:50.057Z,20.60
2023-04-28T20:07:20.387Z,22.10
2023-04-28T20:09:48.632Z,20.48
2023-04-28T20:12:17.798Z,21.10
2023-04-28T20:14:45.906Z,18.83
2023-04-28T20:17:17.349Z,23.40
2023-04-28T20:19:46.772Z,23.63
2023-04-28T20:22:14.884Z,24.05
2023-04-28T20:24:45.387Z,28.83
2023-04-28T20:27:13.565Z,25.77
2023-04-28T20:29:41.872Z,27.58
2023-04-28T20:32:10.628Z,28.27
2023-04-28T20:34:39.431Z,27.10
2023-04-28T20:37:09.048Z,28.55
2023-04-28T20:39:37.196Z,29.20
2023-04-28T20:42:06.516Z,29.42
2023-04-28T20:44:34.585Z,30.38
2023-04-28T20:47:02.794Z,29.73
2023-04-28T20:49:31.225Z,29.30
2023-04-28T20:52:06.052Z,28.55
2023-04-28T20:54:36.586Z,25.77
2023-04-28T20:57:05.032Z,30.88
2023-04-28T20:59:33.473Z,27.95
2023-04-28T21:02:01.692Z,28.10
2023-04-28T21:04:29.880Z,29.83
2023-04-28T21:06:58.287Z,33.05
2023-04-28T21:09:26.705Z,30.20
2023-04-28T21:11:56.226Z,26.65
2023-04-28T21:14:24.267Z,28.40
2023-04-28T21:16:52.411Z,29.15
2023-04-28T21:19:20.428Z,29.40
2023-04-28T21:21:50.981Z,30.20
2023-04-28T21:24:19.011Z,32.70
2023-04-28T21:26:47.607Z,31.40
2023-04-28T21:29:18.466Z,33.40
2023-04-28T21:31:48.979Z,33.05
2023-04-28T21:34:17.079Z,33.60
2023-04-28T21:36:48.520Z,35.03
2023-04-28T21:39:16.567Z,32.85
2023-04-28T21:41:44.627Z,35.50
2023-04-28T21:44:13.117Z,39.50
2023-04-28T21:46:42.614Z,40.28
2023-04-28T21:49:10.681Z,37.58
2023-04-28T21:51:42.230Z,41.90
2023-04-28T21:54:11.036Z,40.17
2023-04-28T21:56:39.027Z,45.85
2023-04-28T21:59:07.083Z,45.50
2023-04-28T22:01:35.766Z,49.60
2023-04-28T22:04:08.780Z,44.80
2023-04-28T22:06:37.131Z,48.67
2023-04-28T22:09:06.512Z,50.88
2023-04-28T22:11:35.031Z,58.58
2023-04-28T22:14:06.136Z,60.65
2023-04-28T22:16:37.168Z,65.55
2023-04-28T22:19:07.268Z,65.20
2023-04-28T22:21:35.404Z,69.57
2023-04-28T22:24:03.954Z,69.55
2023-04-28T22:26:32.028Z,70.57
2023-04-28T22:29:00.288Z,71.82
2023-04-28T22:31:28.333Z,73.78
2023-04-28T22:33:56.383Z,64.30
2023-04-28T22:36:25.840Z,62.22
2023-04-28T22:38:53.844Z,63.20
2023-04-28T22:41:21.879Z,56.35
2023-04-28T22:43:49.888Z,59.35
2023-04-28T22:46:17.970Z,63.20
2023-04-28T22:48:46.009Z,55.90
2023-04-28T22:51:15.754Z,46.05
2023-04-28T22:53:45.371Z,47.88
2023-04-28T22:56:13.457Z,42.83
2023-04-28T22:58:41.506Z,42.20
2023-04-28T23:01:09.600Z,40.03
2023-04-28T23:03:40.824Z,42.00
2023-04-28T23:06:09.312Z,45.60
2023-04-28T23:08:37.395Z,41.45
2023-04-28T23:11:07.883Z,44.13
2023-04-28T23:13:35.992Z,42.22
2023-04-28T23:16:04.051Z,43.45
2023-04-28T23:18:33.864Z,39.58
2023-04-28T23:21:01.927Z,37.33
2023-04-28T23:23:30.059Z,36.28
2023-04-28T23:25:58.108Z,36.20
2023-04-28T23:28:27.662Z,34.38
2023-04-28T23:30:55.787Z,34.90
2023-04-28T23:33:23.831Z,34.63
2023-04-28T23:35:51.878Z,36.47
2023-04-28T23:38:19.983Z,32.80
2023-04-28T23:40:48.018Z,33.13
2023-04-28T23:43:16.084Z,37.42
2023-04-28T23:45:45.557Z,34.78
2023-04-28T23:48:13.596Z,33.65
2023-04-28T23:50:43.964Z,35.22
2023-04-28T23:53:12.635Z,37.20
2023-04-28T23:55:40.621Z,37.90
2023-04-28T23:58:09.225Z,34.83
